Time;durP1;ratioP1;P1;durP2;ratioP2;P2;SDS_P1;SDS_P2;PMS_P1;PMS_P2;Temp;Humidity;BMP_temperature;BMP_pressure;BME280_temperature;BME280_humidity;BME280_pressure;Samples;Min_cycle;Max_cycle;Signal;HPM_P1;HPM_P2
2022/06/13 00:00:49;;;;;;;15.13;5.10;;;13.20;99.90;;;;;;5102638;27;20043;-77
2022/06/13 00:03:16;;;;;;;16.67;5.47;;;13.20;99.90;;;;;;5116328;27;20099;-77
2022/06/13 00:05:42;;;;;;;15.27;5.43;;;13.30;99.90;;;;;;5114084;27;20047;-76
2022/06/13 00:08:08;;;;;;;27.67;5.80;;;13.30;99.90;;;;;;5098251;28;20043;-77
2022/06/13 00:10:34;;;;;;;15.83;5.50;;;13.30;99.90;;;;;;5078840;27;20418;-77
2022/06/13 00:12:59;;;;;;;16.07;5.80;;;13.30;99.90;;;;;;5104530;28;20485;-78
2022/06/13 00:15:25;;;;;;;13.70;5.73;;;13.40;99.90;;;;;;5116321;27;20075;-78
2022/06/13 00:17:51;;;;;;;19.13;5.70;;;13.40;99.90;;;;;;5098637;27;20035;-78
2022/06/13 00:20:18;;;;;;;16.73;5.60;;;13.40;99.90;;;;;;5103138;27;20035;-77
2022/06/13 00:22:44;;;;;;;11.53;5.30;;;13.40;99.90;;;;;;5121470;27;20068;-77
2022/06/13 00:25:10;;;;;;;12.07;5.30;;;13.40;99.90;;;;;;5134219;27;20042;-77
2022/06/13 00:27:36;;;;;;;17.77;5.57;;;13.50;99.90;;;;;;5124591;27;20054;-77
2022/06/13 00:30:05;;;;;;;15.67;5.37;;;13.40;99.90;;;;;;5101952;27;20035;-77
2022/06/13 00:32:30;;;;;;;21.87;5.93;;;13.50;99.90;;;;;;5102881;27;20046;-77
2022/06/13 00:34:56;;;;;;;21.07;6.20;;;13.50;99.90;;;;;;5085616;28;20039;-77
2022/06/13 00:37:23;;;;;;;18.33;5.50;;;13.50;99.90;;;;;;5124064;27;20050;-78
2022/06/13 00:39:49;;;;;;;13.13;4.90;;;13.50;99.90;;;;;;5080091;27;20035;-77
2022/06/13 00:42:17;;;;;;;17.77;5.47;;;13.50;99.90;;;;;;5099741;27;20080;-77
2022/06/13 00:45:07;;;;;;;13.50;4.43;;;13.50;99.90;;;;;;5115338;27;20129;-78
2022/06/13 00:47:33;;;;;;;15.87;5.30;;;13.50;99.90;;;;;;5098470;27;20050;-77
2022/06/13 00:50:03;;;;;;;17.07;5.33;;;13.50;99.90;;;;;;5084538;27;20038;-77
2022/06/13 00:52:35;;;;;;;15.90;5.30;;;13.50;99.90;;;;;;5099347;27;20559;-77
2022/06/13 00:55:01;;;;;;;19.80;5.10;;;13.60;99.90;;;;;;5115531;27;20454;-77
2022/06/13 00:57:28;;;;;;;13.57;5.33;;;13.60;99.90;;;;;;5094108;28;20055;-77
2022/06/13 00:59:58;;;;;;;13.27;5.73;;;13.60;99.90;;;;;;5097638;27;20031;-78
2022/06/13 01:02:24;;;;;;;13.13;5.20;;;13.60;99.90;;;;;;5132694;27;20051;-78
2022/06/13 01:04:52;;;;;;;18.13;5.70;;;13.60;99.90;;;;;;5097589;27;20412;-78
2022/06/13 01:07:20;;;;;;;13.87;5.10;;;13.60;99.90;;;;;;5115120;27;20039;-78
2022/06/13 01:12:36;;;;;;;14.63;4.93;;;13.60;99.90;;;;;;5115615;27;20055;-78
2022/06/13 01:15:19;;;;;;;11.47;4.67;;;13.60;99.90;;;;;;5098028;27;20039;-78
2022/06/13 01:17:55;;;;;;;16.93;5.17;;;13.60;99.90;;;;;;5124549;27;20125;-78
2022/06/13 01:20:38;;;;;;;15.57;5.30;;;13.60;99.90;;;;;;5096626;27;20121;-79
2022/06/13 01:23:26;;;;;;;14.10;5.20;;;13.60;99.90;;;;;;5091001;27;20515;-79
2022/06/13 01:26:18;;;;;;;14.77;4.73;;;13.50;99.90;;;;;;5097869;27;20043;-78
2022/06/13 01:29:04;;;;;;;15.90;5.43;;;13.50;99.90;;;;;;5064822;27;20425;-80
2022/06/13 01:31:39;;;;;;;15.87;5.40;;;13.50;99.90;;;;;;5096573;27;20046;-78
2022/06/13 01:34:13;;;;;;;11.33;4.67;;;13.50;99.90;;;;;;5096383;27;20404;-78
2022/06/13 01:36:49;;;;;;;15.67;5.37;;;13.50;99.90;;;;;;5114579;27;20077;-78
2022/06/13 01:39:28;;;;;;;12.37;4.73;;;13.50;99.90;;;;;;5095126;27;20039;-78
2022/06/13 01:42:05;;;;;;;10.43;4.77;;;13.50;99.90;;;;;;5115166;27;20088;-78
2022/06/13 01:44:39;;;;;;;16.63;5.30;;;13.50;99.90;;;;;;5118594;27;20055;-77
2022/06/13 01:47:11;;;;;;;18.27;5.47;;;13.50;99.90;;;;;;5098041;27;20091;-76
2022/06/13 01:49:47;;;;;;;15.67;4.57;;;13.40;99.90;;;;;;5082804;27;20135;-77
2022/06/13 01:52:25;;;;;;;18.47;5.57;;;13.40;99.90;;;;;;5097186;27;20118;-77
2022/06/13 01:54:57;;;;;;;15.63;5.30;;;13.30;99.90;;;;;;5099682;27;20123;-77
2022/06/13 01:57:30;;;;;;;15.93;5.67;;;13.30;99.90;;;;;;5094756;28;20092;-77
2022/06/13 02:00:04;;;;;;;15.88;5.78;;;13.40;99.90;;;;;;5118817;27;20122;-77
2022/06/13 02:02:38;;;;;;;17.30;5.43;;;13.40;99.90;;;;;;5114724;27;20051;-77
2022/06/13 02:05:07;;;;;;;;;;;13.40;99.90;;;;;;5093879;27;20054;-76
2022/06/13 02:07:39;;;;;;;14.50;6.57;;;13.40;99.90;;;;;;5110965;27;19915;-77
2022/06/13 02:10:09;;;;;;;15.10;6.23;;;13.40;99.90;;;;;;5077773;28;20094;-77
2022/06/13 02:12:36;;;;;;;18.27;6.47;;;13.40;99.90;;;;;;5110995;28;20043;-76
2022/06/13 02:15:07;;;;;;;18.27;7.20;;;13.40;99.90;;;;;;5083588;28;20063;-77
2022/06/13 02:17:40;;;;;;;17.43;6.83;;;13.40;99.90;;;;;;5106049;28;20405;-77
2022/06/13 02:20:11;;;;;;;16.23;7.25;;;13.40;99.90;;;;;;5091546;27;20058;-76
2022/06/13 02:22:41;;;;;;;19.07;6.80;;;13.40;99.90;;;;;;5080738;27;20042;-77
2022/06/13 02:25:11;;;;;;;17.47;7.10;;;13.40;99.90;;;;;;5087141;28;20044;-77
2022/06/13 02:27:39;;;;;;;21.10;8.00;;;13.40;99.90;;;;;;5106749;28;20424;-77
2022/06/13 02:30:10;;;;;;;15.03;6.43;;;13.30;99.90;;;;;;5112431;27;20035;-78
2022/06/13 02:32:43;;;;;;;17.93;7.63;;;13.30;99.90;;;;;;5129177;27;20471;-77
2022/06/13 02:35:14;;;;;;;19.85;7.57;;;13.30;99.90;;;;;;5097334;27;20070;-75
2022/06/13 02:37:46;;;;;;;16.10;6.80;;;13.30;99.90;;;;;;5130540;27;20050;-76
2022/06/13 02:40:17;;;;;;;25.50;7.90;;;13.30;99.90;;;;;;5097256;27;20043;-75
2022/06/13 02:42:48;;;;;;;22.60;7.97;;;13.30;99.90;;;;;;5113111;27;20110;-75
2022/06/13 02:45:19;;;;;;;24.50;8.23;;;13.30;99.90;;;;;;5108259;28;20040;-75
2022/06/13 02:47:51;;;;;;;21.47;7.80;;;13.30;99.90;;;;;;5094361;28;20043;-76
2022/06/13 02:50:22;;;;;;;22.53;8.60;;;13.30;99.90;;;;;;5112888;27;20059;-76
2022/06/13 02:52:54;;;;;;;22.03;8.30;;;13.30;99.90;;;;;;5129809;27;20047;-76
2022/06/13 02:55:20;;;;;;;20.73;7.90;;;13.30;99.90;;;;;;5128960;28;20129;-76
2022/06/13 02:57:59;;;;;;;22.93;9.17;;;13.30;99.90;;;;;;5095325;28;20552;-75
2022/06/13 03:00:36;;;;;;;22.50;9.07;;;13.30;99.90;;;;;;5121115;28;20561;-76
2022/06/13 03:03:14;;;;;;;22.50;9.47;;;13.30;99.90;;;;;;5107900;28;20043;-76
2022/06/13 03:05:51;;;;;;;24.17;9.90;;;13.30;99.90;;;;;;5079585;28;20047;-75
2022/06/13 03:08:37;;;;;;;19.67;9.37;;;13.30;99.90;;;;;;5130784;28;20164;-75
2022/06/13 03:11:14;;;;;;;21.40;9.03;;;13.30;99.90;;;;;;5098377;28;20040;-75
2022/06/13 03:13:47;;;;;;;21.93;9.47;;;13.30;99.90;;;;;;5085025;28;20067;-75
2022/06/13 03:16:31;;;;;;;19.00;8.90;;;13.30;99.90;;;;;;5092996;28;20040;-75
2022/06/13 03:19:06;;;;;;;25.15;9.93;;;13.30;99.90;;;;;;5078963;28;20033;-75
2022/06/13 03:21:36;;;;;;;23.27;9.87;;;13.30;99.90;;;;;;5112557;28;20043;-75
2022/06/13 03:24:13;;;;;;;22.43;9.20;;;13.30;99.90;;;;;;5072369;28;20050;-77
2022/06/13 03:26:43;;;;;;;26.27;9.97;;;13.30;99.90;;;;;;5108614;28;20049;-76
2022/06/13 03:29:13;;;;;;;22.77;9.30;;;13.30;99.90;;;;;;5082653;28;20122;-75
2022/06/13 03:31:43;;;;;;;20.80;10.27;;;13.30;99.90;;;;;;5114592;28;20035;-76
2022/06/13 03:34:14;;;;;;;21.33;9.40;;;13.30;99.90;;;;;;5092523;28;20043;-74
2022/06/13 03:36:43;;;;;;;22.37;9.87;;;13.40;99.90;;;;;;5093522;28;20052;-76
2022/06/13 03:39:17;;;;;;;21.53;9.90;;;13.40;99.90;;;;;;5093154;28;20040;-77
2022/06/13 03:41:47;;;;;;;24.75;9.32;;;13.40;99.90;;;;;;5096884;28;20047;-76
2022/06/13 03:44:19;;;;;;;23.07;9.40;;;13.40;99.90;;;;;;5109521;28;20504;-75
2022/06/13 03:46:52;;;;;;;23.87;8.60;;;13.40;99.90;;;;;;5084951;27;20465;-75
2022/06/13 03:49:24;;;;;;;18.23;8.73;;;13.40;99.90;;;;;;5102302;27;20039;-75
2022/06/13 03:51:53;;;;;;;18.60;8.67;;;13.40;99.90;;;;;;5107787;27;20119;-76
2022/06/13 03:54:23;;;;;;;18.27;8.30;;;13.40;99.90;;;;;;5113702;28;20039;-76
2022/06/13 03:56:55;;;;;;;17.03;8.63;;;13.40;99.90;;;;;;5115913;27;20043;-76
2022/06/13 03:59:25;;;;;;;20.57;8.60;;;13.40;99.90;;;;;;5115197;27;20451;-75
2022/06/13 04:01:56;;;;;;;18.83;8.50;;;13.50;99.90;;;;;;5098739;27;20070;-74
2022/06/13 04:04:32;;;;;;;19.63;7.80;;;13.50;99.90;;;;;;5116544;27;20039;-77
2022/06/13 04:07:00;;;;;;;18.97;7.50;;;13.50;99.90;;;;;;5107480;27;20058;-75
2022/06/13 04:09:28;;;;;;;21.73;7.70;;;13.50;99.90;;;;;;5116370;27;20473;-76
2022/06/13 04:12:14;;;;;;;18.63;7.57;;;13.60;99.90;;;;;;5100320;27;20062;-77
2022/06/13 04:15:06;;;;;;;18.77;8.03;;;13.60;99.90;;;;;;5113756;28;20436;-76
2022/06/13 04:17:40;;;;;;;21.97;7.37;;;13.70;99.90;;;;;;5095482;27;20035;-77
2022/06/13 04:20:18;;;;;;;15.35;7.18;;;13.70;99.90;;;;;;5094948;27;20035;-75
2022/06/13 04:22:49;;;;;;;17.73;6.90;;;13.70;99.90;;;;;;5114742;27;20531;-75
2022/06/13 04:25:24;;;;;;;16.77;6.33;;;13.70;99.90;;;;;;5095237;28;20031;-76
2022/06/13 04:27:56;;;;;;;15.03;5.57;;;13.70;99.90;;;;;;5098542;27;20443;-77
2022/06/13 04:30:28;;;;;;;15.67;5.77;;;13.70;99.90;;;;;;5098208;27;20124;-77
2022/06/13 04:33:00;;;;;;;15.37;6.20;;;13.80;99.90;;;;;;5077586;27;20047;-78
2022/06/13 04:35:29;;;;;;;14.97;5.43;;;13.80;99.90;;;;;;5107321;27;20039;-76
2022/06/13 04:37:55;;;;;;;14.97;5.40;;;13.80;99.90;;;;;;5096271;28;20056;-77
2022/06/13 04:40:23;;;;;;;13.97;5.33;;;13.80;99.90;;;;;;5115130;27;20038;-75
2022/06/13 04:42:51;;;;;;;20.60;5.70;;;13.90;99.90;;;;;;5080558;27;20040;-76
2022/06/13 04:45:22;;;;;;;13.43;4.73;;;13.90;99.90;;;;;;5110630;28;20081;-76
2022/06/13 04:47:50;;;;;;;12.53;4.50;;;14.00;99.90;;;;;;5110508;28;20047;-77
2022/06/13 04:50:19;;;;;;;18.53;5.20;;;14.10;99.90;;;;;;5091952;27;20041;-77
2022/06/13 04:52:50;;;;;;;16.60;4.60;;;14.10;99.90;;;;;;5121470;27;20043;-76
2022/06/13 04:55:21;;;;;;;15.57;5.00;;;14.20;99.90;;;;;;5108819;27;20506;-76
2022/06/13 04:57:47;;;;;;;12.80;5.30;;;14.20;99.90;;;;;;5093068;27;20051;-77
2022/06/13 05:00:14;;;;;;;12.77;4.23;;;14.30;99.90;;;;;;5093221;27;20549;-76
2022/06/13 05:02:43;;;;;;;16.60;4.90;;;14.30;99.90;;;;;;5095161;27;20035;-76
2022/06/13 05:05:27;;;;;;;16.80;4.10;;;14.40;99.90;;;;;;5123170;27;20067;-76
2022/06/13 05:07:55;;;;;;;12.15;4.85;;;14.50;99.90;;;;;;5095576;27;20051;-76
2022/06/13 05:10:24;;;;;;;10.50;4.20;;;14.50;99.90;;;;;;5074936;27;20420;-75
2022/06/13 05:12:50;;;;;;;9.77;4.70;;;14.60;99.90;;;;;;5093907;27;20096;-74
2022/06/13 05:15:21;;;;;;;12.30;4.23;;;14.60;99.90;;;;;;5077959;27;20031;-75
2022/06/13 05:18:11;;;;;;;14.70;4.13;;;14.60;99.90;;;;;;5095103;27;20576;-75
2022/06/13 05:20:47;;;;;;;14.30;4.50;;;14.70;99.90;;;;;;5097303;27;20041;-75
2022/06/13 05:23:37;;;;;;;10.07;4.00;;;14.80;99.90;;;;;;5109532;27;20503;-75
2022/06/13 05:26:04;;;;;;;12.43;4.07;;;14.90;99.90;;;;;;5099385;27;20096;-76
2022/06/13 05:28:32;;;;;;;13.63;4.50;;;14.90;99.90;;;;;;5088846;27;20050;-75
2022/06/13 05:31:01;;;;;;;12.73;3.93;;;15.00;99.90;;;;;;5104362;28;20047;-76
2022/06/13 05:33:30;;;;;;;8.47;3.50;;;15.20;99.90;;;;;;5095244;28;20048;-75
2022/06/13 05:35:57;;;;;;;9.40;3.20;;;15.70;99.90;;;;;;5115392;27;20397;-76
2022/06/13 05:38:30;;;;;;;11.20;3.77;;;15.90;99.90;;;;;;5099680;27;20110;-77
2022/06/13 05:40:56;;;;;;;13.75;3.75;;;16.00;99.90;;;;;;5114914;27;20039;-74
2022/06/13 05:43:22;;;;;;;10.17;3.90;;;15.90;99.90;;;;;;5114459;27;20047;-76
2022/06/13 05:45:48;;;;;;;14.43;3.97;;;15.80;99.90;;;;;;5097286;27;20542;-75
2022/06/13 05:48:16;;;;;;;15.77;4.10;;;15.70;99.90;;;;;;5111710;28;20118;-77
2022/06/13 05:50:43;;;;;;;9.43;3.43;;;15.70;99.90;;;;;;5112797;27;20040;-75
2022/06/13 05:53:11;;;;;;;13.00;3.40;;;15.70;99.90;;;;;;5098168;27;20039;-76
2022/06/13 05:55:38;;;;;;;11.40;4.33;;;15.60;99.90;;;;;;5097723;27;20096;-75
2022/06/13 05:58:04;;;;;;;8.80;3.57;;;15.50;99.90;;;;;;5093246;28;20470;-77
2022/06/13 06:00:41;;;;;;;10.80;3.90;;;15.50;99.90;;;;;;5098563;27;20114;-75
2022/06/13 06:03:07;;;;;;;11.40;3.30;;;15.50;99.90;;;;;;5078630;27;20100;-75
2022/06/13 06:05:33;;;;;;;8.70;3.40;;;15.70;99.90;;;;;;5111122;27;20100;-75
2022/06/13 06:07:59;;;;;;;7.90;3.50;;;15.70;99.90;;;;;;5093431;27;20497;-75
2022/06/13 06:10:29;;;;;;;13.13;3.10;;;15.70;99.90;;;;;;5075240;27;20074;-76
2022/06/13 06:12:56;;;;;;;10.40;3.00;;;15.60;99.90;;;;;;5118801;27;20058;-75
2022/06/13 06:15:22;;;;;;;8.67;3.43;;;15.50;99.90;;;;;;5107393;27;20087;-76
2022/06/13 06:17:48;;;;;;;11.83;2.83;;;15.60;99.90;;;;;;5071566;27;20043;-75
2022/06/13 06:20:17;;;;;;;8.27;2.63;;;15.70;99.90;;;;;;5109977;27;20043;-76
2022/06/13 06:22:43;;;;;;;7.77;2.87;;;15.80;99.90;;;;;;5075552;27;20122;-76
2022/06/13 06:25:09;;;;;;;8.60;2.60;;;15.90;99.90;;;;;;5088772;27;20415;-75
2022/06/13 06:27:35;;;;;;;7.77;2.87;;;16.00;99.90;;;;;;5105712;28;20054;-75
2022/06/13 06:30:03;;;;;;;7.43;2.17;;;16.00;99.90;;;;;;5080841;27;20134;-75
2022/06/13 06:32:29;;;;;;;7.23;2.40;;;16.00;99.90;;;;;;5087263;27;20043;-76
2022/06/13 06:34:54;;;;;;;6.90;2.47;;;16.10;99.90;;;;;;5086819;27;20417;-75
2022/06/13 06:37:20;;;;;;;7.57;2.00;;;16.10;99.90;;;;;;5105381;27;20449;-76
2022/06/13 06:39:47;;;;;;;10.53;2.00;;;16.10;99.90;;;;;;5104962;27;20035;-75
2022/06/13 06:42:12;;;;;;;7.97;2.17;;;16.10;99.90;;;;;;5086475;27;20080;-76
2022/06/13 06:44:39;;;;;;;10.87;3.00;;;16.10;99.90;;;;;;5103003;28;20039;-73
2022/06/13 06:47:07;;;;;;;7.90;2.00;;;16.00;99.90;;;;;;5108596;27;20050;-75
2022/06/13 06:49:34;;;;;;;5.67;2.33;;;16.00;99.90;;;;;;5084266;28;20595;-76
2022/06/13 06:52:00;;;;;;;9.73;2.20;;;16.00;99.90;;;;;;5105380;27;20042;-75
2022/06/13 06:59:56;;;;;;;;;;;16.00;99.90;;;;;;5108967;28;20445;-76
2022/06/13 07:02:26;;;;;;;11.63;2.13;;;16.00;99.90;;;;;;5090656;28;19923;-75
2022/06/13 07:04:53;;;;;;;11.27;2.30;;;16.10;99.90;;;;;;5107469;28;20072;-76
2022/06/13 07:07:19;;;;;;;4.10;1.13;;;16.10;99.90;;;;;;5089376;28;20516;-77
2022/06/13 07:09:45;;;;;;;1.50;0.70;;;16.10;99.90;;;;;;5085855;28;20039;-76
2022/06/13 07:12:11;;;;;;;1.87;0.70;;;16.00;99.90;;;;;;5106008;27;20492;-77
2022/06/13 07:14:37;;;;;;;3.00;0.73;;;15.90;99.90;;;;;;5090432;28;20039;-76
2022/06/13 07:17:05;;;;;;;3.70;1.03;;;15.80;99.90;;;;;;5088939;27;20080;-76
2022/06/13 07:19:33;;;;;;;2.03;0.80;;;15.70;99.90;;;;;;5073616;27;20047;-77
2022/06/13 07:21:59;;;;;;;2.10;0.80;;;15.70;99.90;;;;;;5090637;27;20043;-76
2022/06/13 07:24:25;;;;;;;1.63;0.70;;;15.60;99.90;;;;;;5113313;27;20142;-75
2022/06/13 07:26:52;;;;;;;0.63;0.43;;;15.60;99.90;;;;;;5094582;27;20043;-75
2022/06/13 07:29:18;;;;;;;2.13;0.60;;;15.50;99.90;;;;;;5093402;27;20516;-76
2022/06/13 07:31:46;;;;;;;1.37;0.57;;;15.50;99.90;;;;;;5100201;27;20040;-75
2022/06/13 07:34:15;;;;;;;2.47;0.80;;;15.50;99.90;;;;;;5110242;27;20043;-75
2022/06/13 07:36:42;;;;;;;3.67;0.90;;;15.40;99.90;;;;;;5109294;27;20081;-75
2022/06/13 07:39:08;;;;;;;3.30;1.00;;;15.40;99.90;;;;;;5117164;27;20419;-75
2022/06/13 07:41:36;;;;;;;2.83;0.93;;;15.30;99.90;;;;;;5096302;27;20134;-76
2022/06/13 07:44:02;;;;;;;5.97;1.10;;;15.20;99.90;;;;;;5112904;27;20511;-76
2022/06/13 07:46:29;;;;;;;4.27;1.13;;;15.20;99.90;;;;;;5110487;27;20043;-75
2022/06/13 07:48:56;;;;;;;5.07;1.40;;;15.20;99.90;;;;;;5109461;27;20039;-75
2022/06/13 07:51:22;;;;;;;6.40;1.17;;;15.20;99.90;;;;;;5093608;27;20497;-75
2022/06/13 07:53:50;;;;;;;5.17;1.37;;;15.20;99.90;;;;;;5110375;27;20042;-76
2022/06/13 07:56:19;;;;;;;7.87;1.70;;;15.40;99.90;;;;;;5112372;27;20092;-75
2022/06/13 07:58:48;;;;;;;9.93;2.20;;;15.60;99.90;;;;;;5112312;27;20043;-75
2022/06/13 08:01:14;;;;;;;5.50;1.63;;;15.90;99.90;;;;;;5114649;27;20055;-75
2022/06/13 08:03:40;;;;;;;3.07;1.27;;;16.00;99.90;;;;;;5094972;27;20039;-76
2022/06/13 08:06:06;;;;;;;6.13;1.33;;;16.20;99.90;;;;;;5110167;27;20047;-76
2022/06/13 08:08:36;;;;;;;8.17;1.70;;;16.20;99.90;;;;;;5094132;27;20039;-75
2022/06/13 08:11:06;;;;;;;9.03;1.93;;;16.30;99.90;;;;;;5109125;27;20581;-76
2022/06/13 08:13:33;;;;;;;5.53;1.50;;;16.30;99.90;;;;;;5107493;27;20070;-76
2022/06/13 08:15:59;;;;;;;5.90;1.57;;;16.20;99.90;;;;;;5106756;27;20044;-76
2022/06/13 08:18:25;;;;;;;5.83;1.77;;;16.20;99.90;;;;;;5110240;27;20404;-76
2022/06/13 08:20:51;;;;;;;7.73;1.60;;;16.20;99.90;;;;;;5093478;27;20412;-75
2022/06/13 08:23:19;;;;;;;5.37;1.80;;;16.30;99.90;;;;;;5108652;27;20039;-75
2022/06/13 08:25:47;;;;;;;7.30;1.33;;;16.40;99.90;;;;;;5111717;27;20401;-76
2022/06/13 08:28:14;;;;;;;7.97;1.90;;;16.60;99.90;;;;;;5111106;27;20062;-75
2022/06/13 08:30:43;;;;;;;4.30;1.40;;;16.80;99.90;;;;;;5111451;27;20477;-75
2022/06/13 08:33:09;;;;;;;9.83;2.00;;;17.00;99.90;;;;;;5099216;27;20051;-76
2022/06/13 08:35:38;;;;;;;7.73;1.40;;;17.20;99.90;;;;;;5116889;27;20047;-78
2022/06/13 08:38:04;;;;;;;5.70;1.57;;;17.20;99.90;;;;;;5026059;28;20045;-78
2022/06/13 08:40:38;;;;;;;7.07;1.83;;;17.00;99.90;;;;;;5029962;28;20388;-77
2022/06/13 08:43:17;;;;;;;6.37;1.40;;;16.90;99.90;;;;;;4997142;28;21009;-77
2022/06/13 08:45:50;;;;;;;7.40;1.60;;;16.80;99.90;;;;;;5013412;28;20040;-77
2022/06/13 08:48:20;;;;;;;6.13;1.45;;;16.60;99.90;;;;;;5012202;28;20522;-74
2022/06/13 08:50:53;;;;;;;6.47;1.53;;;16.60;99.90;;;;;;5001202;28;20048;-74
2022/06/13 08:53:23;;;;;;;6.27;1.80;;;16.70;99.90;;;;;;5028514;28;20044;-77
2022/06/13 08:55:53;;;;;;;9.57;1.60;;;16.90;99.90;;;;;;5001496;28;20389;-77
2022/06/13 08:58:26;;;;;;;4.90;1.47;;;17.20;99.90;;;;;;5031024;28;20052;-77
2022/06/13 09:00:57;;;;;;;8.07;1.20;;;17.60;99.90;;;;;;5031107;28;20044;-76
2022/06/13 09:03:29;;;;;;;6.20;1.33;;;17.60;99.90;;;;;;5031970;28;20056;-77
2022/06/13 09:05:59;;;;;;;3.50;0.93;;;17.30;99.90;;;;;;5014572;28;20067;-76
2022/06/13 09:08:35;;;;;;;8.37;1.30;;;17.30;99.90;;;;;;5045442;28;20048;-75
2022/06/13 09:11:06;;;;;;;6.50;1.40;;;17.50;99.90;;;;;;5030914;28;20399;-76
2022/06/13 09:13:37;;;;;;;7.00;1.27;;;17.70;99.90;;;;;;5025614;28;20052;-76
2022/06/13 09:16:09;;;;;;;4.90;0.97;;;17.90;99.90;;;;;;5017621;28;20036;-76
2022/06/13 09:18:41;;;;;;;3.57;0.90;;;18.10;99.90;;;;;;5046432;28;20045;-77
2022/06/13 09:21:15;;;;;;;8.30;1.30;;;18.20;99.90;;;;;;5015088;28;20041;-77
2022/06/13 09:23:50;;;;;;;4.38;1.40;;;18.50;99.90;;;;;;5014205;28;20392;-77
2022/06/13 09:26:18;;;;;;;5.30;0.90;;;18.70;99.90;;;;;;5014002;28;20128;-77
2022/06/13 09:28:50;;;;;;;4.60;1.10;;;18.80;99.90;;;;;;5010644;28;20127;-76
2022/06/13 09:31:26;;;;;;;3.07;0.80;;;18.70;99.90;;;;;;5029786;28;20590;-76
2022/06/13 09:33:57;;;;;;;4.47;0.80;;;18.60;99.90;;;;;;5008548;28;20056;-76
2022/06/13 09:36:29;;;;;;;4.83;1.13;;;18.50;99.90;;;;;;5035351;28;20055;-76
2022/06/13 09:38:59;;;;;;;4.07;1.07;;;18.30;99.90;;;;;;5049668;28;20154;-75
2022/06/13 09:41:40;;;;;;;5.63;1.20;;;18.60;99.90;;;;;;5064597;28;20056;-79
2022/06/13 09:44:19;;;;;;;7.93;1.50;;;19.20;99.90;;;;;;5047707;28;20051;-76
2022/06/13 09:46:54;;;;;;;4.83;1.13;;;19.70;99.90;;;;;;5031612;28;20111;-76
2022/06/13 09:49:36;;;;;;;5.67;1.10;;;19.90;99.20;;;;;;5047833;28;20095;-77
2022/06/13 09:52:09;;;;;;;6.77;1.07;;;19.90;98.70;;;;;;5053353;28;20139;-77
2022/06/13 09:54:53;;;;;;;8.63;1.25;;;19.80;96.80;;;;;;5048381;28;20040;-76
2022/06/13 09:57:28;;;;;;;5.60;1.27;;;19.60;96.90;;;;;;5018246;28;20580;-78
2022/06/13 10:00:07;;;;;;;6.50;1.00;;;19.40;97.00;;;;;;5066442;28;20056;-77
2022/06/13 10:02:44;;;;;;;7.20;1.17;;;19.20;96.70;;;;;;5032721;28;20419;-75
2022/06/13 10:05:32;;;;;;;8.60;1.40;;;19.00;97.20;;;;;;5045056;28;20072;-77
2022/06/13 10:08:09;;;;;;;6.37;1.13;;;18.90;97.10;;;;;;5030159;28;20055;-76
2022/06/13 10:10:43;;;;;;;6.37;1.40;;;19.00;97.70;;;;;;5047473;28;20044;-76
2022/06/13 10:13:16;;;;;;;;;;;19.40;98.40;;;;;;5047644;28;20048;-77
2022/06/13 10:15:47;;;;;;;4.30;1.20;;;20.00;98.10;;;;;;5049612;28;20054;-78
2022/06/13 10:18:42;;;;;;;8.27;1.30;;;20.30;97.10;;;;;;5030505;28;20055;-76
2022/06/13 10:21:20;;;;;;;6.00;1.20;;;20.10;96.10;;;;;;5061501;28;20102;-76
2022/06/13 10:23:54;;;;;;;6.37;1.13;;;19.60;95.70;;;;;;5049822;28;20041;-76
2022/06/13 10:26:28;;;;;;;5.40;1.20;;;19.60;97.40;;;;;;5028881;28;20048;-77
2022/06/13 10:29:11;;;;;;;7.00;1.70;;;19.90;95.20;;;;;;5046671;28;20494;-76
2022/06/13 10:31:51;;;;;;;7.67;1.30;;;20.30;92.90;;;;;;5046793;28;20053;-77
2022/06/13 10:34:26;;;;;;;7.93;1.47;;;20.60;94.40;;;;;;5021217;28;20191;-78
2022/06/13 10:37:02;;;;;;;6.90;1.30;;;21.10;95.30;;;;;;5049575;28;20041;-79
2022/06/13 10:39:29;;;;;;;7.30;1.40;;;21.50;95.40;;;;;;5045972;28;20112;-77
2022/06/13 10:42:02;;;;;;;7.23;1.50;;;21.70;95.40;;;;;;5046873;28;20164;-79
2022/06/13 10:44:28;;;;;;;5.50;1.30;;;22.00;93.30;;;;;;5046681;28;20048;-78
2022/06/13 10:47:00;;;;;;;11.93;1.90;;;21.60;92.50;;;;;;5041557;28;20037;-77
2022/06/13 10:49:32;;;;;;;10.27;1.50;;;20.90;91.90;;;;;;5027718;28;20139;-77
2022/06/13 10:52:05;;;;;;;7.63;1.67;;;20.20;91.90;;;;;;5032413;28;20051;-79
2022/06/13 10:54:37;;;;;;;6.10;1.53;;;19.60;92.40;;;;;;5046857;28;20045;-77
2022/06/13 10:57:07;;;;;;;7.93;1.47;;;19.20;94.40;;;;;;5047070;28;20124;-78
2022/06/13 10:59:36;;;;;;;6.17;1.20;;;18.80;96.70;;;;;;5053417;28;20052;-76
2022/06/13 11:02:04;;;;;;;6.43;1.33;;;18.40;98.00;;;;;;5029466;28;20036;-78
2022/06/13 11:04:32;;;;;;;6.40;1.17;;;18.00;98.90;;;;;;5047772;28;20048;-78
2022/06/13 11:07:03;;;;;;;6.87;1.27;;;17.80;99.80;;;;;;5014150;28;20047;-77
2022/06/13 11:09:36;;;;;;;7.97;1.37;;;17.70;99.90;;;;;;5030592;28;20091;-77
2022/06/13 11:12:14;;;;;;;8.57;1.70;;;17.70;99.90;;;;;;5048068;28;20493;-77
2022/06/13 11:23:20;;;;;;;7.80;1.53;;;18.50;99.90;;;;;;5046047;28;20060;-77
2022/06/13 11:25:55;;;;;;;8.47;1.80;;;18.60;99.90;;;;;;5045941;28;20037;-77
2022/06/13 11:28:24;;;;;;;5.27;1.70;;;18.60;99.90;;;;;;5050002;28;20060;-75
2022/06/13 11:30:51;;;;;;;6.50;1.67;;;19.10;99.90;;;;;;5029976;28;20048;-79
2022/06/13 11:33:30;;;;;;;7.20;1.60;;;19.80;99.90;;;;;;5035835;28;20052;-77
2022/06/13 11:36:00;;;;;;;5.07;1.30;;;20.60;99.90;;;;;;5036850;28;20431;-77
2022/06/13 11:38:28;;;;;;;4.77;1.10;;;21.20;98.60;;;;;;5048344;28;20053;-76
2022/06/13 11:41:04;;;;;;;5.53;1.10;;;21.50;95.60;;;;;;5046385;28;20124;-78
2022/06/13 11:43:37;;;;;;;3.67;1.00;;;21.40;93.90;;;;;;5045841;28;20486;-77
2022/06/13 11:46:13;;;;;;;1.92;0.73;;;21.00;92.80;;;;;;5045773;28;20056;-79
2022/06/13 11:48:46;;;;;;;5.00;1.00;;;20.60;93.00;;;;;;5031445;28;20075;-77
2022/06/13 11:51:20;;;;;;;6.47;1.63;;;20.30;92.70;;;;;;5034651;28;20047;-79
2022/06/13 11:53:46;;;;;;;9.93;1.50;;;19.80;93.50;;;;;;5048880;28;20072;-77
2022/06/13 11:56:22;;;;;;;5.00;1.37;;;19.70;94.30;;;;;;5017305;28;20075;-76
2022/06/13 11:58:50;;;;;;;5.73;1.40;;;19.70;95.20;;;;;;5033880;28;20056;-76
2022/06/13 12:01:25;;;;;;;9.03;1.70;;;20.30;97.20;;;;;;5048556;28;20571;-78
2022/06/13 12:04:01;;;;;;;6.90;1.60;;;21.00;96.00;;;;;;5050869;28;20049;-75
2022/06/13 12:06:35;;;;;;;8.93;1.63;;;21.50;96.10;;;;;;5051157;28;20055;-78
2022/06/13 12:09:04;;;;;;;9.07;2.33;;;21.80;96.10;;;;;;5052282;28;20040;-78
2022/06/13 12:11:30;;;;;;;9.47;2.00;;;22.20;95.60;;;;;;5050191;28;20072;-77
2022/06/13 12:13:59;;;;;;;5.60;1.90;;;22.40;95.30;;;;;;5050425;28;20048;-78
2022/06/13 12:16:37;;;;;;;8.27;1.80;;;22.60;93.50;;;;;;5032242;28;20097;-77
2022/06/13 12:19:25;;;;;;;8.50;1.90;;;22.30;92.40;;;;;;5049209;28;20059;-77
2022/06/13 12:22:00;;;;;;;11.27;1.90;;;21.90;92.30;;;;;;5064899;28;20039;-77
2022/06/13 12:24:34;;;;;;;7.50;1.67;;;21.90;92.80;;;;;;5050672;28;20074;-81
2022/06/13 12:27:05;;;;;;;9.32;1.88;;;21.90;93.70;;;;;;5051199;28;20051;-78
2022/06/13 12:29:51;;;;;;;9.13;1.97;;;21.90;93.80;;;;;;5044600;28;20040;-76
2022/06/13 12:32:22;;;;;;;4.77;1.33;;;21.90;92.90;;;;;;5049583;28;20414;-77
2022/06/13 12:35:01;;;;;;;10.63;2.00;;;21.90;92.20;;;;;;5049605;28;20190;-78
2022/06/13 12:37:37;;;;;;;7.33;1.70;;;21.70;92.10;;;;;;4964444;28;1235773;-76
2022/06/13 12:40:18;;;;;;;6.27;1.67;;;21.50;92.20;;;;;;5059654;28;20052;-79
2022/06/13 12:42:56;;;;;;;9.83;1.83;;;21.20;93.40;;;;;;5068584;28;20069;-76
2022/06/13 12:45:55;;;;;;;8.37;1.60;;;21.40;94.60;;;;;;5049110;28;20044;-78
2022/06/13 12:48:32;;;;;;;7.87;1.93;;;22.00;94.90;;;;;;5044494;28;20041;-78
2022/06/13 12:51:10;;;;;;;10.03;1.80;;;22.70;94.30;;;;;;5048259;28;20036;-78
2022/06/13 12:53:49;;;;;;;10.57;1.97;;;22.80;92.50;;;;;;5050528;28;20402;-78
2022/06/13 12:56:21;;;;;;;8.80;2.00;;;22.30;91.40;;;;;;5033591;28;20044;-77
2022/06/13 12:59:20;;;;;;;6.23;1.40;;;21.70;91.60;;;;;;5028205;28;20047;-75
2022/06/13 13:01:59;;;;;;;8.30;1.80;;;21.30;91.70;;;;;;5027326;28;20091;-78
2022/06/13 13:04:40;;;;;;;5.80;1.23;;;20.80;91.80;;;;;;5031434;28;20522;-78
2022/06/13 13:07:17;;;;;;;6.37;1.73;;;20.50;92.40;;;;;;5032861;28;20147;-77
2022/06/13 13:10:06;;;;;;;8.30;1.50;;;20.30;92.20;;;;;;5051163;28;20135;-77
2022/06/13 13:13:09;;;;;;;4.83;1.40;;;20.20;92.70;;;;;;5048494;28;20053;-76
2022/06/13 13:15:42;;;;;;;6.07;1.47;;;20.80;93.20;;;;;;5033201;28;20941;-79
2022/06/13 13:18:26;;;;;;;9.83;1.80;;;21.50;92.70;;;;;;5056663;28;20068;-77
2022/06/13 13:20:56;;;;;;;10.13;1.83;;;21.80;91.70;;;;;;5046430;28;20322;-78
2022/06/13 13:23:31;;;;;;;9.20;1.90;;;21.60;91.50;;;;;;5049368;28;20048;-76